TVS4AC HEMA-LKPR
Flight info
| Callsign | TVS4AC |
|---|---|
| Flight time | N/A |
| Altitude | 34000 |
| Route | ALKUN1B ALKUN V730 MEMPO L300 LXR P751 KUNKI L321 REXUM M872 SOBAX DCT NOGLI L551 ANTAR UN133 KOROS/N0450F360 UN133 PEREN UL863 EVIVI L863 OKANA DCT RAVAK DCT BGD DCT TONDO DCT BEGLA DCT NAVTI DCT BODAL DCT VLM |
| Aircraft | B738/M-SDE2E3FGHIRWXY/LB1 |
Departure
| Time | 2026-04-16 21:24 |
|---|---|
| Airport | Marsa Alam International Airport (HEMA) |
Arrival
| Time | N/A |
|---|---|
| Airport | Václav Havel Airport Prague (LKPR) |
| Time | Latitude | Longitude | Altitude | Speed | Heading |
|---|---|---|---|---|---|
| 2026-04-16 21:08 | 25.55566 | 34.59042 | 243 ft | 0 kts | 60° |
| 2026-04-16 21:13 | 25.55561 | 34.59031 | 243 ft | 2 kts | 67° |
| 2026-04-16 21:13 | 25.55554 | 34.59015 | 244 ft | 2 kts | 63° |
| 2026-04-16 21:13 | 25.55548 | 34.59000 | 244 ft | 2 kts | 65° |
| 2026-04-16 21:14 | 25.55541 | 34.58986 | 245 ft | 2 kts | 64° |
| 2026-04-16 21:14 | 25.55535 | 34.58970 | 246 ft | 2 kts | 65° |
| 2026-04-16 21:14 | 25.55531 | 34.58961 | 246 ft | 1 kts | 65° |
| 2026-04-16 21:14 | 25.55525 | 34.58955 | 246 ft | 1 kts | 5° |
| 2026-04-16 21:15 | 25.55518 | 34.58955 | 246 ft | 0 kts | 328° |
| 2026-04-16 21:15 | 25.55513 | 34.58960 | 246 ft | 0 kts | 331° |
| 2026-04-16 21:17 | 25.55530 | 34.58950 | 246 ft | 9 kts | 331° |
| 2026-04-16 21:18 | 25.55597 | 34.58908 | 248 ft | 9 kts | 328° |
| 2026-04-16 21:18 | 25.55630 | 34.58862 | 250 ft | 6 kts | 279° |
| 2026-04-16 21:18 | 25.55619 | 34.58815 | 251 ft | 9 kts | 240° |
| 2026-04-16 21:18 | 25.55577 | 34.58732 | 255 ft | 12 kts | 240° |
| 2026-04-16 21:19 | 25.55545 | 34.58671 | 259 ft | 6 kts | 240° |
| 2026-04-16 21:19 | 25.55530 | 34.58642 | 261 ft | 3 kts | 236° |
| 2026-04-16 21:19 | 25.55503 | 34.58599 | 263 ft | 11 kts | 235° |
| 2026-04-16 21:19 | 25.55514 | 34.58506 | 266 ft | 13 kts | 322° |
| 2026-04-16 21:20 | 25.55591 | 34.58452 | 267 ft | 12 kts | 327° |
| 2026-04-16 21:20 | 25.55664 | 34.58403 | 267 ft | 11 kts | 329° |
| 2026-04-16 21:20 | 25.55732 | 34.58360 | 268 ft | 10 kts | 330° |
| 2026-04-16 21:20 | 25.55795 | 34.58320 | 268 ft | 10 kts | 330° |
| 2026-04-16 21:21 | 25.55878 | 34.58266 | 268 ft | 19 kts | 329° |
| 2026-04-16 21:21 | 25.55995 | 34.58191 | 269 ft | 18 kts | 330° |
| 2026-04-16 21:21 | 25.56109 | 34.58120 | 268 ft | 19 kts | 330° |
| 2026-04-16 21:21 | 25.56228 | 34.58047 | 266 ft | 19 kts | 330° |
| 2026-04-16 21:22 | 25.56347 | 34.57975 | 264 ft | 19 kts | 331° |
| 2026-04-16 21:22 | 25.56462 | 34.57898 | 264 ft | 18 kts | 328° |
| 2026-04-16 21:22 | 25.56572 | 34.57824 | 264 ft | 18 kts | 328° |
| 2026-04-16 21:22 | 25.56684 | 34.57752 | 263 ft | 18 kts | 330° |
| 2026-04-16 21:23 | 25.56794 | 34.57687 | 264 ft | 17 kts | 342° |
| 2026-04-16 21:23 | 25.56883 | 34.57669 | 261 ft | 9 kts | 308° |
| 2026-04-16 21:23 | 25.56847 | 34.57650 | 264 ft | 13 kts | 153° |
| 2026-04-16 21:23 | 25.56552 | 34.57840 | 265 ft | 82 kts | 150° |
| 2026-04-16 21:24 | 25.55875 | 34.58265 | 268 ft | 138 kts | 149° |
| 2026-04-16 21:24 | 25.54957 | 34.58862 | 572 ft | 160 kts | 147° |
| 2026-04-16 21:24 | 25.53951 | 34.59580 | 1361 ft | 182 kts | 144° |
| 2026-04-16 21:24 | 25.53019 | 34.60286 | 2521 ft | 165 kts | 145° |
| 2026-04-16 21:25 | 25.51910 | 34.60973 | 2761 ft | 205 kts | 151° |
| 2026-04-16 21:25 | 25.50546 | 34.61727 | 2436 ft | 230 kts | 150° |
| 2026-04-16 21:25 | 25.49030 | 34.62651 | 2720 ft | 263 kts | 148° |
| 2026-04-16 21:25 | 25.47447 | 34.63654 | 3812 ft | 268 kts | 150° |
| 2026-04-16 21:26 | 25.45706 | 34.64431 | 4767 ft | 278 kts | 169° |
| 2026-04-16 21:26 | 25.43799 | 34.64343 | 5889 ft | 278 kts | 197° |
| 2026-04-16 21:26 | 25.42071 | 34.63425 | 6945 ft | 279 kts | 216° |
| 2026-04-16 21:26 | 25.40621 | 34.62026 | 7909 ft | 284 kts | 230° |
| 2026-04-16 21:27 | 25.39481 | 34.60242 | 8886 ft | 288 kts | 240° |
| 2026-04-16 21:27 | 25.38501 | 34.58320 | 9828 ft | 293 kts | 242° |
| 2026-04-16 21:27 | 25.37542 | 34.56334 | 10744 ft | 299 kts | 245° |
| 2026-04-16 21:27 | 25.36867 | 34.54137 | 11439 ft | 311 kts | 258° |
| 2026-04-16 21:28 | 25.36767 | 34.51747 | 11747 ft | 313 kts | 277° |
| 2026-04-16 21:28 | 25.37281 | 34.49384 | 11792 ft | 313 kts | 286° |
| 2026-04-16 21:28 | 25.37936 | 34.47096 | 11813 ft | 316 kts | 287° |
| 2026-04-16 21:28 | 25.38613 | 34.44774 | 11809 ft | 313 kts | 287° |
| 2026-04-16 21:29 | 25.39249 | 34.42515 | 11924 ft | 309 kts | 286° |
| 2026-04-16 21:29 | 25.39876 | 34.40213 | 12324 ft | 310 kts | 285° |
| 2026-04-16 21:29 | 25.40488 | 34.37922 | 12735 ft | 311 kts | 285° |
| 2026-04-16 21:29 | 25.41098 | 34.35618 | 13148 ft | 314 kts | 285° |
| 2026-04-16 21:30 | 25.41703 | 34.33326 | 13551 ft | 314 kts | 284° |
| 2026-04-16 21:30 | 25.42323 | 34.30980 | 13961 ft | 316 kts | 284° |
| 2026-04-16 21:30 | 25.42936 | 34.28658 | 14370 ft | 315 kts | 284° |
| 2026-04-16 21:30 | 25.43547 | 34.26342 | 14780 ft | 317 kts | 284° |
| 2026-04-16 21:31 | 25.44170 | 34.23982 | 15196 ft | 318 kts | 284° |
| 2026-04-16 21:31 | 25.44793 | 34.21617 | 15610 ft | 321 kts | 284° |
| 2026-04-16 21:31 | 25.45417 | 34.19250 | 16026 ft | 322 kts | 284° |
| 2026-04-16 21:31 | 25.46044 | 34.16871 | 16446 ft | 322 kts | 284° |
| 2026-04-16 21:32 | 25.46627 | 34.14462 | 16868 ft | 322 kts | 280° |
| 2026-04-16 21:32 | 25.46898 | 34.12011 | 17285 ft | 322 kts | 269° |
| 2026-04-16 21:32 | 25.46663 | 34.09572 | 17700 ft | 323 kts | 258° |
| 2026-04-16 21:32 | 25.46130 | 34.07135 | 18118 ft | 324 kts | 255° |
| 2026-04-16 21:33 | 25.45516 | 34.04731 | 18537 ft | 326 kts | 254° |
| 2026-04-16 21:33 | 25.44879 | 34.02308 | 18957 ft | 327 kts | 254° |
| 2026-04-16 21:33 | 25.44252 | 33.99890 | 19376 ft | 329 kts | 254° |
| 2026-04-16 21:33 | 25.43634 | 33.97463 | 19788 ft | 332 kts | 254° |
| 2026-04-16 21:34 | 25.43045 | 33.95007 | 20205 ft | 331 kts | 257° |
| 2026-04-16 21:34 | 25.42701 | 33.92462 | 20631 ft | 335 kts | 266° |
| 2026-04-16 21:34 | 25.42822 | 33.89893 | 21051 ft | 339 kts | 277° |
| 2026-04-16 21:34 | 25.43356 | 33.87338 | 21479 ft | 341 kts | 283° |
| 2026-04-16 21:35 | 25.44045 | 33.84822 | 21901 ft | 344 kts | 285° |
| 2026-04-16 21:35 | 25.44793 | 33.82293 | 22329 ft | 346 kts | 285° |
| 2026-04-16 21:35 | 25.45550 | 33.79769 | 22755 ft | 347 kts | 285° |
| 2026-04-16 21:35 | 25.46303 | 33.77240 | 23190 ft | 349 kts | 285° |
| 2026-04-16 21:36 | 25.47059 | 33.74678 | 23622 ft | 349 kts | 285° |
| 2026-04-16 21:36 | 25.47805 | 33.72127 | 24059 ft | 351 kts | 285° |
| 2026-04-16 21:36 | 25.48556 | 33.69542 | 24496 ft | 353 kts | 285° |
| 2026-04-16 21:36 | 25.49306 | 33.66949 | 24920 ft | 354 kts | 285° |
| 2026-04-16 21:37 | 25.50057 | 33.64352 | 25347 ft | 356 kts | 285° |
| 2026-04-16 21:37 | 25.50808 | 33.61745 | 25780 ft | 357 kts | 285° |
| 2026-04-16 21:37 | 25.51553 | 33.59160 | 26203 ft | 357 kts | 285° |
| 2026-04-16 21:37 | 25.52306 | 33.56541 | 26635 ft | 359 kts | 285° |
| 2026-04-16 21:38 | 25.53068 | 33.53885 | 27069 ft | 361 kts | 285° |
| 2026-04-16 21:38 | 25.53825 | 33.51248 | 27497 ft | 364 kts | 285° |
| 2026-04-16 21:38 | 25.54590 | 33.48584 | 27929 ft | 364 kts | 285° |
| 2026-04-16 21:38 | 25.55357 | 33.45913 | 28362 ft | 365 kts | 285° |
| 2026-04-16 21:39 | 25.56122 | 33.43244 | 28792 ft | 367 kts | 285° |
| 2026-04-16 21:39 | 25.56896 | 33.40540 | 29227 ft | 368 kts | 285° |
| 2026-04-16 21:39 | 25.57673 | 33.37827 | 29666 ft | 370 kts | 285° |
| 2026-04-16 21:39 | 25.58444 | 33.35125 | 30105 ft | 373 kts | 285° |
| 2026-04-16 21:40 | 25.59228 | 33.32379 | 30548 ft | 373 kts | 285° |
| 2026-04-16 21:40 | 25.60008 | 33.29650 | 30991 ft | 373 kts | 284° |
| 2026-04-16 21:40 | 25.60791 | 33.26904 | 31439 ft | 373 kts | 285° |
| 2026-04-16 21:40 | 25.61575 | 33.24153 | 31881 ft | 376 kts | 285° |
| 2026-04-16 21:41 | 25.62363 | 33.21384 | 32321 ft | 377 kts | 285° |
| 2026-04-16 21:41 | 25.63158 | 33.18591 | 32766 ft | 377 kts | 284° |
| 2026-04-16 21:41 | 25.63949 | 33.15813 | 33221 ft | 379 kts | 284° |
| 2026-04-16 21:41 | 25.64736 | 33.13041 | 33612 ft | 382 kts | 284° |
| 2026-04-16 21:42 | 25.65545 | 33.10189 | 33742 ft | 387 kts | 285° |
| 2026-04-16 21:42 | 25.67148 | 33.04540 | 33765 ft | 382 kts | 285° |
| 2026-04-16 21:43 | 25.68741 | 32.98918 | 33762 ft | 383 kts | 285° |
| 2026-04-16 21:43 | 25.70335 | 32.93277 | 33755 ft | 386 kts | 284° |
| 2026-04-16 21:44 | 25.71919 | 32.87660 | 33748 ft | 383 kts | 284° |
| 2026-04-16 21:44 | 25.73509 | 32.82035 | 33740 ft | 383 kts | 285° |
| 2026-04-16 21:45 | 25.75540 | 32.76535 | 33740 ft | 389 kts | 295° |
| 2026-04-16 21:45 | 25.78683 | 32.71661 | 33745 ft | 391 kts | 303° |
| 2026-04-16 21:46 | 25.82246 | 32.66981 | 33745 ft | 395 kts | 304° |
| 2026-04-16 21:46 | 25.85797 | 32.62366 | 33754 ft | 395 kts | 304° |
| 2026-04-16 21:47 | 25.89348 | 32.57694 | 33753 ft | 393 kts | 304° |
| 2026-04-16 21:47 | 25.92850 | 32.53042 | 33755 ft | 395 kts | 304° |
| 2026-04-16 21:48 | 25.96366 | 32.48349 | 33767 ft | 394 kts | 304° |
| 2026-04-16 21:48 | 25.99864 | 32.43669 | 33769 ft | 394 kts | 304° |
| 2026-04-16 21:49 | 26.03374 | 32.38967 | 33761 ft | 392 kts | 304° |
| 2026-04-16 21:49 | 26.06835 | 32.34329 | 33761 ft | 393 kts | 304° |
| 2026-04-16 21:50 | 26.10346 | 32.29615 | 33763 ft | 392 kts | 303° |
| 2026-04-16 21:50 | 26.13822 | 32.24944 | 33772 ft | 393 kts | 303° |
| 2026-04-16 21:51 | 26.17312 | 32.20246 | 33768 ft | 392 kts | 303° |
| 2026-04-16 21:51 | 26.20783 | 32.15579 | 33767 ft | 392 kts | 303° |
| 2026-04-16 21:52 | 26.24266 | 32.10885 | 33755 ft | 392 kts | 303° |
| 2026-04-16 21:52 | 26.27737 | 32.06201 | 33754 ft | 392 kts | 303° |
| 2026-04-16 21:53 | 26.31206 | 32.01519 | 33749 ft | 392 kts | 303° |
| 2026-04-16 21:53 | 26.34661 | 31.96853 | 33750 ft | 392 kts | 303° |
| 2026-04-16 21:54 | 26.38132 | 31.92153 | 33758 ft | 393 kts | 303° |
| 2026-04-16 21:54 | 26.41617 | 31.87431 | 33757 ft | 391 kts | 303° |
| 2026-04-16 21:55 | 26.45077 | 31.82739 | 33755 ft | 393 kts | 303° |
| 2026-04-16 21:55 | 26.48531 | 31.78050 | 33751 ft | 393 kts | 303° |
| 2026-04-16 21:56 | 26.52000 | 31.73337 | 33740 ft | 393 kts | 303° |
| 2026-04-16 21:56 | 26.55454 | 31.68637 | 33752 ft | 394 kts | 303° |
| 2026-04-16 21:57 | 26.58940 | 31.63891 | 33760 ft | 393 kts | 303° |
| 2026-04-16 21:57 | 26.62396 | 31.59180 | 33764 ft | 393 kts | 303° |
| 2026-04-16 21:58 | 26.65848 | 31.54470 | 33761 ft | 392 kts | 303° |
| 2026-04-16 21:58 | 26.69325 | 31.49719 | 33751 ft | 394 kts | 303° |
| 2026-04-16 21:59 | 26.72787 | 31.44986 | 33747 ft | 392 kts | 303° |
| 2026-04-16 21:59 | 26.76239 | 31.40261 | 33749 ft | 391 kts | 303° |
| 2026-04-16 22:00 | 26.79682 | 31.35545 | 33755 ft | 392 kts | 303° |
| 2026-04-16 22:00 | 26.83128 | 31.30816 | 33757 ft | 390 kts | 303° |
| 2026-04-16 22:01 | 26.86560 | 31.26103 | 33755 ft | 391 kts | 303° |
| 2026-04-16 22:01 | 26.90006 | 31.21364 | 33755 ft | 393 kts | 302° |
| 2026-04-16 22:02 | 26.93460 | 31.16610 | 33759 ft | 392 kts | 302° |
| 2026-04-16 22:02 | 26.96909 | 31.11860 | 33762 ft | 393 kts | 302° |
| 2026-04-16 22:03 | 27.00346 | 31.07130 | 33773 ft | 393 kts | 303° |
| 2026-04-16 22:03 | 27.04105 | 31.02615 | 33777 ft | 401 kts | 311° |
| 2026-04-16 22:04 | 27.08533 | 30.98774 | 33782 ft | 405 kts | 316° |
| 2026-04-16 22:04 | 27.13182 | 30.95134 | 33761 ft | 407 kts | 317° |
| 2026-04-16 22:05 | 27.17851 | 30.91493 | 33756 ft | 407 kts | 317° |
| 2026-04-16 22:05 | 27.22507 | 30.87827 | 33747 ft | 407 kts | 317° |
| 2026-04-16 22:06 | 27.27114 | 30.84168 | 33750 ft | 410 kts | 316° |
| 2026-04-16 22:06 | 27.34060 | 30.78626 | 33744 ft | 408 kts | 316° |
| 2026-04-16 22:07 | 27.38700 | 30.74919 | 33736 ft | 406 kts | 316° |
| 2026-04-16 22:07 | 27.43308 | 30.71229 | 33740 ft | 406 kts | 316° |
| 2026-04-16 22:08 | 27.47924 | 30.67525 | 33737 ft | 407 kts | 316° |
| 2026-04-16 22:08 | 27.52534 | 30.63826 | 33735 ft | 408 kts | 316° |
| 2026-04-16 22:09 | 27.57177 | 30.60097 | 33738 ft | 407 kts | 316° |
| 2026-04-16 22:09 | 27.61816 | 30.56365 | 33739 ft | 409 kts | 316° |
| 2026-04-16 22:10 | 27.66446 | 30.52638 | 33744 ft | 408 kts | 316° |
| 2026-04-16 22:10 | 27.71086 | 30.48902 | 33746 ft | 407 kts | 316° |
| 2026-04-16 22:11 | 27.75713 | 30.45169 | 33745 ft | 409 kts | 316° |
| 2026-04-16 22:11 | 27.80338 | 30.41435 | 33749 ft | 408 kts | 316° |
| 2026-04-16 22:12 | 27.84997 | 30.37667 | 33751 ft | 409 kts | 316° |
| 2026-04-16 22:12 | 27.89675 | 30.33880 | 33751 ft | 410 kts | 316° |
| 2026-04-16 22:13 | 27.94313 | 30.30124 | 33750 ft | 408 kts | 315° |
| 2026-04-16 22:13 | 27.98967 | 30.26349 | 33749 ft | 410 kts | 315° |
| 2026-04-16 22:14 | 28.03596 | 30.22590 | 33746 ft | 410 kts | 316° |
| 2026-04-16 22:14 | 28.08234 | 30.18824 | 33748 ft | 407 kts | 316° |
| 2026-04-16 22:15 | 28.12860 | 30.15060 | 33743 ft | 408 kts | 315° |
| 2026-04-16 22:15 | 28.17537 | 30.11248 | 33737 ft | 409 kts | 315° |
| 2026-04-16 22:16 | 28.22211 | 30.07435 | 33740 ft | 409 kts | 315° |
| 2026-04-16 22:16 | 28.26839 | 30.03660 | 33747 ft | 408 kts | 315° |
| 2026-04-16 22:17 | 28.31459 | 29.99879 | 33745 ft | 410 kts | 315° |
| 2026-04-16 22:17 | 28.36080 | 29.96101 | 33749 ft | 410 kts | 315° |
| 2026-04-16 22:18 | 28.40683 | 29.92330 | 33745 ft | 410 kts | 315° |
| 2026-04-16 22:18 | 28.45296 | 29.88548 | 33750 ft | 408 kts | 315° |
| 2026-04-16 22:19 | 28.49923 | 29.84751 | 33748 ft | 409 kts | 315° |
| 2026-04-16 22:19 | 28.54526 | 29.80970 | 33750 ft | 409 kts | 315° |
| 2026-04-16 22:20 | 28.59168 | 29.77149 | 33745 ft | 410 kts | 315° |
| 2026-04-16 22:20 | 28.63791 | 29.73345 | 33745 ft | 408 kts | 315° |
| 2026-04-16 22:21 | 28.68412 | 29.69532 | 33742 ft | 410 kts | 315° |
| 2026-04-16 22:21 | 28.73383 | 29.66210 | 33746 ft | 430 kts | 330° |
| 2026-04-16 22:22 | 28.79292 | 29.64468 | 33740 ft | 442 kts | 339° |
| 2026-04-16 22:22 | 28.85333 | 29.63160 | 33740 ft | 442 kts | 339° |
| 2026-04-16 22:23 | 28.91366 | 29.61790 | 33745 ft | 442 kts | 339° |
| 2026-04-16 22:23 | 28.97395 | 29.60319 | 33742 ft | 441 kts | 338° |
| 2026-04-16 22:24 | 29.03378 | 29.58791 | 33747 ft | 442 kts | 338° |
| 2026-04-16 22:24 | 29.09401 | 29.57223 | 33747 ft | 440 kts | 337° |
| 2026-04-16 22:25 | 29.15381 | 29.55650 | 33748 ft | 441 kts | 337° |
| 2026-04-16 22:25 | 29.21370 | 29.54067 | 33748 ft | 439 kts | 337° |
| 2026-04-16 22:26 | 29.27323 | 29.52493 | 33745 ft | 441 kts | 337° |
| 2026-04-16 22:26 | 29.33306 | 29.50903 | 33741 ft | 442 kts | 337° |
| 2026-04-16 22:27 | 29.39314 | 29.49310 | 33742 ft | 441 kts | 337° |
| 2026-04-16 22:27 | 29.45351 | 29.47705 | 33745 ft | 445 kts | 337° |
| 2026-04-16 22:28 | 29.51365 | 29.46110 | 33744 ft | 440 kts | 337° |
| 2026-04-16 22:28 | 29.57355 | 29.44514 | 33736 ft | 443 kts | 337° |
| 2026-04-16 22:29 | 29.63362 | 29.42916 | 33735 ft | 441 kts | 337° |
| 2026-04-16 22:29 | 29.69370 | 29.41312 | 33728 ft | 442 kts | 337° |
| 2026-04-16 22:30 | 29.75377 | 29.39706 | 33723 ft | 441 kts | 337° |
| 2026-04-16 22:30 | 29.81350 | 29.38110 | 33719 ft | 444 kts | 336° |
| 2026-04-16 22:31 | 29.87366 | 29.36498 | 33715 ft | 444 kts | 337° |
| 2026-04-16 22:31 | 29.93380 | 29.34887 | 33720 ft | 443 kts | 336° |
| 2026-04-16 22:32 | 29.99389 | 29.33271 | 33723 ft | 443 kts | 336° |
| 2026-04-16 22:32 | 30.05430 | 29.31650 | 33729 ft | 446 kts | 336° |
| 2026-04-16 22:33 | 30.11472 | 29.30020 | 33721 ft | 443 kts | 336° |
| 2026-04-16 22:33 | 30.17508 | 29.28396 | 33716 ft | 445 kts | 336° |
| 2026-04-16 22:34 | 30.23522 | 29.26771 | 33706 ft | 445 kts | 336° |
| 2026-04-16 22:34 | 30.29564 | 29.25142 | 33706 ft | 446 kts | 336° |
| 2026-04-16 22:35 | 30.35580 | 29.23515 | 33697 ft | 444 kts | 336° |
| 2026-04-16 22:35 | 30.41639 | 29.21871 | 33698 ft | 448 kts | 336° |
| 2026-04-16 22:36 | 30.47695 | 29.20229 | 33687 ft | 447 kts | 336° |
| 2026-04-16 22:36 | 30.53749 | 29.18587 | 33687 ft | 447 kts | 336° |
| 2026-04-16 22:37 | 30.59858 | 29.16924 | 33686 ft | 450 kts | 336° |
| 2026-04-16 22:37 | 30.65946 | 29.15267 | 33675 ft | 447 kts | 336° |
| 2026-04-16 22:38 | 30.72031 | 29.13607 | 33680 ft | 452 kts | 336° |
| 2026-04-16 22:38 | 30.78088 | 29.11961 | 33665 ft | 446 kts | 336° |
| 2026-04-16 22:39 | 30.84147 | 29.10301 | 33672 ft | 450 kts | 336° |
| 2026-04-16 22:39 | 30.90264 | 29.08624 | 33663 ft | 450 kts | 336° |
| 2026-04-16 22:40 | 30.96376 | 29.06955 | 33661 ft | 451 kts | 336° |
| 2026-04-16 22:40 | 31.02502 | 29.05271 | 33661 ft | 451 kts | 336° |
| 2026-04-16 22:41 | 31.08639 | 29.03584 | 33658 ft | 453 kts | 336° |
| 2026-04-16 22:41 | 31.14793 | 29.01898 | 33662 ft | 448 kts | 336° |
| 2026-04-16 22:42 | 31.20911 | 29.00208 | 33663 ft | 454 kts | 336° |
| 2026-04-16 22:42 | 31.27028 | 28.98521 | 33672 ft | 454 kts | 335° |
| 2026-04-16 22:43 | 31.33221 | 28.96806 | 33668 ft | 454 kts | 336° |
| 2026-04-16 22:43 | 31.39409 | 28.95094 | 33657 ft | 455 kts | 336° |
| 2026-04-16 22:44 | 31.45551 | 28.93394 | 33660 ft | 456 kts | 335° |
| 2026-04-16 22:44 | 31.51774 | 28.91668 | 33650 ft | 458 kts | 335° |
| 2026-04-16 22:45 | 31.57959 | 28.89952 | 33648 ft | 455 kts | 336° |
| 2026-04-16 22:45 | 31.64182 | 28.88223 | 33646 ft | 461 kts | 336° |
| 2026-04-16 22:46 | 31.70430 | 28.86486 | 33650 ft | 460 kts | 336° |
| 2026-04-16 22:46 | 31.76697 | 28.84731 | 33646 ft | 461 kts | 336° |
| 2026-04-16 22:47 | 31.82957 | 28.82992 | 33653 ft | 459 kts | 336° |
| 2026-04-16 22:47 | 31.89148 | 28.81259 | 33657 ft | 461 kts | 336° |
| 2026-04-16 22:48 | 31.95462 | 28.79488 | 33655 ft | 462 kts | 336° |
| 2026-04-16 22:48 | 32.01736 | 28.77729 | 33651 ft | 467 kts | 336° |
| 2026-04-16 22:49 | 32.08049 | 28.75964 | 33655 ft | 466 kts | 336° |
| 2026-04-16 22:49 | 32.14373 | 28.74180 | 33651 ft | 464 kts | 336° |
| 2026-04-16 22:50 | 32.20669 | 28.72407 | 33647 ft | 464 kts | 336° |
| 2026-04-16 22:50 | 32.27003 | 28.70622 | 33647 ft | 469 kts | 337° |
| 2026-04-16 22:51 | 32.33387 | 28.68819 | 33639 ft | 467 kts | 337° |
| 2026-04-16 22:51 | 32.39743 | 28.67020 | 33643 ft | 472 kts | 337° |
| 2026-04-16 22:52 | 32.46145 | 28.65208 | 33658 ft | 471 kts | 338° |
| 2026-04-16 22:52 | 32.52514 | 28.63407 | 33665 ft | 469 kts | 338° |
| 2026-04-16 22:53 | 32.58897 | 28.61594 | 33652 ft | 473 kts | 338° |
| 2026-04-16 22:53 | 32.65306 | 28.59768 | 33640 ft | 469 kts | 338° |
| 2026-04-16 22:54 | 32.71679 | 28.57957 | 33648 ft | 472 kts | 338° |
| 2026-04-16 22:54 | 32.78098 | 28.56122 | 33655 ft | 473 kts | 339° |
| 2026-04-16 22:55 | 32.84481 | 28.54295 | 33643 ft | 473 kts | 338° |
| 2026-04-16 22:55 | 32.90886 | 28.52460 | 33653 ft | 477 kts | 339° |
| 2026-04-16 22:56 | 32.97342 | 28.50615 | 33651 ft | 472 kts | 339° |
| 2026-04-16 22:56 | 33.03792 | 28.48769 | 33657 ft | 474 kts | 340° |
| 2026-04-16 22:57 | 33.10191 | 28.46929 | 33657 ft | 477 kts | 340° |
| 2026-04-16 22:57 | 33.16644 | 28.45070 | 33652 ft | 475 kts | 340° |
| 2026-04-16 22:58 | 33.23131 | 28.43194 | 33675 ft | 479 kts | 341° |
| 2026-04-16 22:58 | 33.29633 | 28.41317 | 33683 ft | 479 kts | 341° |
| 2026-04-16 22:59 | 33.36109 | 28.39443 | 33665 ft | 476 kts | 341° |
| 2026-04-16 22:59 | 33.42591 | 28.37566 | 33656 ft | 478 kts | 342° |
| 2026-04-16 23:00 | 33.49056 | 28.35689 | 33671 ft | 480 kts | 342° |
| 2026-04-16 23:00 | 33.55537 | 28.33808 | 33676 ft | 479 kts | 342° |
| 2026-04-16 23:01 | 33.62009 | 28.31928 | 33666 ft | 477 kts | 342° |
| 2026-04-16 23:01 | 33.68504 | 28.30038 | 33664 ft | 478 kts | 342° |
| 2026-04-16 23:02 | 33.74947 | 28.28155 | 33687 ft | 477 kts | 342° |
| 2026-04-16 23:02 | 33.81217 | 28.25699 | 33657 ft | 471 kts | 333° |
| 2026-04-16 23:03 | 33.87084 | 28.22183 | 33686 ft | 470 kts | 327° |
| 2026-04-16 23:03 | 33.92762 | 28.18296 | 33700 ft | 472 kts | 327° |
| 2026-04-16 23:04 | 33.98400 | 28.14383 | 33680 ft | 465 kts | 326° |
| 2026-04-16 23:04 | 34.04051 | 28.10489 | 33697 ft | 468 kts | 327° |
| 2026-04-16 23:05 | 34.09746 | 28.06593 | 33670 ft | 472 kts | 327° |
| 2026-04-16 23:05 | 34.15438 | 28.02712 | 33676 ft | 471 kts | 328° |
| 2026-04-16 23:06 | 34.21124 | 27.98840 | 33680 ft | 470 kts | 328° |
| 2026-04-16 23:06 | 34.26836 | 27.94945 | 33693 ft | 472 kts | 328° |
| 2026-04-16 23:07 | 34.32561 | 27.91038 | 33706 ft | 470 kts | 329° |
| 2026-04-16 23:07 | 34.38257 | 27.87142 | 33685 ft | 472 kts | 329° |
| 2026-04-16 23:08 | 34.43960 | 27.83237 | 33696 ft | 470 kts | 329° |
| 2026-04-16 23:08 | 34.49663 | 27.79324 | 33706 ft | 472 kts | 330° |
| 2026-04-16 23:09 | 34.55367 | 27.75403 | 33704 ft | 469 kts | 330° |
| 2026-04-16 23:09 | 34.61026 | 27.71495 | 33718 ft | 471 kts | 330° |
| 2026-04-16 23:10 | 34.66702 | 27.67565 | 33694 ft | 468 kts | 330° |
| 2026-04-16 23:10 | 34.72427 | 27.63595 | 33713 ft | 470 kts | 331° |
| 2026-04-16 23:11 | 34.78062 | 27.59683 | 33699 ft | 469 kts | 331° |
| 2026-04-16 23:11 | 34.83766 | 27.55718 | 33694 ft | 468 kts | 331° |
| 2026-04-16 23:12 | 34.89369 | 27.51815 | 33713 ft | 467 kts | 332° |
| 2026-04-16 23:12 | 34.95044 | 27.47857 | 33767 ft | 467 kts | 332° |
| 2026-04-16 23:13 | 35.00704 | 27.43905 | 33713 ft | 464 kts | 332° |
| 2026-04-16 23:13 | 35.06294 | 27.39996 | 33719 ft | 466 kts | 332° |
| 2026-04-16 23:14 | 35.11908 | 27.36059 | 33726 ft | 466 kts | 332° |
| 2026-04-16 23:14 | 35.17566 | 27.32084 | 33725 ft | 467 kts | 332° |
| 2026-04-16 23:15 | 35.25966 | 27.26170 | 33738 ft | 467 kts | 332° |
| 2026-04-16 23:16 | 35.31576 | 27.22219 | 33757 ft | 465 kts | 332° |
| 2026-04-16 23:16 | 35.37210 | 27.18248 | 33747 ft | 466 kts | 332° |
| 2026-04-16 23:17 | 35.42840 | 27.14315 | 33776 ft | 466 kts | 334° |
| 2026-04-16 23:17 | 35.48641 | 27.10828 | 33757 ft | 462 kts | 338° |
| 2026-04-16 23:18 | 35.54490 | 27.07607 | 33779 ft | 460 kts | 339° |
| 2026-04-16 23:18 | 35.60343 | 27.04395 | 33781 ft | 461 kts | 339° |
| 2026-04-16 23:19 | 35.66217 | 27.01141 | 33787 ft | 462 kts | 338° |
| 2026-04-16 23:19 | 35.72070 | 26.97861 | 33796 ft | 462 kts | 338° |
| 2026-04-16 23:20 | 35.77919 | 26.94564 | 33791 ft | 461 kts | 339° |
| 2026-04-16 23:20 | 35.83719 | 26.91277 | 33816 ft | 460 kts | 339° |
| 2026-04-16 23:21 | 35.89520 | 26.87974 | 33800 ft | 459 kts | 339° |
| 2026-04-16 23:21 | 35.95331 | 26.84646 | 33823 ft | 458 kts | 339° |
| 2026-04-16 23:22 | 36.01064 | 26.81358 | 33813 ft | 456 kts | 339° |
| 2026-04-16 23:22 | 36.06836 | 26.78047 | 33796 ft | 457 kts | 339° |
| 2026-04-16 23:23 | 36.12595 | 26.74736 | 33794 ft | 457 kts | 339° |
| 2026-04-16 23:23 | 36.18364 | 26.71415 | 33796 ft | 458 kts | 339° |
| 2026-04-16 23:24 | 36.24154 | 26.68078 | 33796 ft | 457 kts | 339° |
| 2026-04-16 23:24 | 36.29878 | 26.64772 | 33794 ft | 457 kts | 339° |
| 2026-04-16 23:25 | 36.35670 | 26.61411 | 33797 ft | 459 kts | 339° |
| 2026-04-16 23:25 | 36.41429 | 26.58067 | 33796 ft | 458 kts | 339° |
| 2026-04-16 23:26 | 36.47192 | 26.54715 | 33797 ft | 458 kts | 338° |
| 2026-04-16 23:26 | 36.52953 | 26.51358 | 33797 ft | 458 kts | 338° |
| 2026-04-16 23:27 | 36.58689 | 26.48017 | 33794 ft | 458 kts | 338° |
| 2026-04-16 23:27 | 36.60625 | 26.46886 | 33794 ft | 459 kts | 338° |